sensor_id;sensor_type;location;lat;lon;timestamp;pressure;altitude;pressure_sealevel;temperature;humidity
4598;BME280;62772;48.646;8.906;2022-11-06T00:00:18;96643.88;;;2.01;100.00
4598;BME280;62772;48.646;8.906;2022-11-06T00:05:21;96649.19;;;2.28;100.00
4598;BME280;62772;48.646;8.906;2022-11-06T00:10:42;96641.97;;;2.46;100.00
4598;BME280;62772;48.646;8.906;2022-11-06T00:15:43;96637.97;;;2.43;100.00
4598;BME280;62772;48.646;8.906;2022-11-06T00:20:46;96647.31;;;2.56;100.00
4598;BME280;62772;48.646;8.906;2022-11-06T00:25:47;96642.72;;;2.73;100.00
4598;BME280;62772;48.646;8.906;2022-11-06T00:31:00;96629.53;;;2.73;100.00
4598;BME280;62772;48.646;8.906;2022-11-06T00:36:05;96637.41;;;2.36;100.00
4598;BME280;62772;48.646;8.906;2022-11-06T00:41:12;96640.34;;;1.68;100.00
4598;BME280;62772;48.646;8.906;2022-11-06T00:46:13;96649.44;;;1.60;100.00
4598;BME280;62772;48.646;8.906;2022-11-06T00:51:18;96648.19;;;2.07;100.00
4598;BME280;62772;48.646;8.906;2022-11-06T00:56:19;96650.34;;;1.88;100.00
4598;BME280;62772;48.646;8.906;2022-11-06T01:01:22;96655.59;;;1.88;100.00
4598;BME280;62772;48.646;8.906;2022-11-06T01:06:28;96641.44;;;1.72;100.00
4598;BME280;62772;48.646;8.906;2022-11-06T01:11:30;96640.56;;;1.67;100.00
4598;BME280;62772;48.646;8.906;2022-11-06T01:16:31;96639.47;;;1.40;100.00
4598;BME280;62772;48.646;8.906;2022-11-06T01:21:37;96642.00;;;1.96;100.00
4598;BME280;62772;48.646;8.906;2022-11-06T01:26:38;96657.00;;;1.96;100.00
4598;BME280;62772;48.646;8.906;2022-11-06T01:31:39;96649.16;;;2.01;100.00
4598;BME280;62772;48.646;8.906;2022-11-06T01:36:43;96653.69;;;1.84;100.00
4598;BME280;62772;48.646;8.906;2022-11-06T01:41:47;96653.81;;;1.94;100.00
4598;BME280;62772;48.646;8.906;2022-11-06T01:46:48;96636.28;;;2.05;100.00
4598;BME280;62772;48.646;8.906;2022-11-06T01:51:55;96642.63;;;2.04;100.00
4598;BME280;62772;48.646;8.906;2022-11-06T01:56:57;96645.53;;;2.07;100.00
4598;BME280;62772;48.646;8.906;2022-11-06T02:01:59;96642.00;;;1.96;100.00
4598;BME280;62772;48.646;8.906;2022-11-06T02:07:03;96635.00;;;1.41;100.00
4598;BME280;62772;48.646;8.906;2022-11-06T02:12:12;96632.06;;;1.59;100.00
4598;BME280;62772;48.646;8.906;2022-11-06T02:17:19;96625.41;;;1.52;100.00
4598;BME280;62772;48.646;8.906;2022-11-06T02:22:36;96612.31;;;1.40;100.00
4598;BME280;62772;48.646;8.906;2022-11-06T02:27:44;96605.69;;;1.32;100.00
4598;BME280;62772;48.646;8.906;2022-11-06T02:32:53;96598.25;;;1.29;100.00
4598;BME280;62772;48.646;8.906;2022-11-06T02:37:58;96588.25;;;1.09;100.00
4598;BME280;62772;48.646;8.906;2022-11-06T02:43:06;96579.84;;;0.39;100.00
4598;BME280;62772;48.646;8.906;2022-11-06T02:48:08;96566.50;;;0.97;100.00
4598;BME280;62772;48.646;8.906;2022-11-06T02:53:13;96562.69;;;0.87;100.00
4598;BME280;62772;48.646;8.906;2022-11-06T02:58:19;96558.31;;;1.32;100.00
4598;BME280;62772;48.646;8.906;2022-11-06T03:03:25;96539.25;;;1.47;100.00
4598;BME280;62772;48.646;8.906;2022-11-06T03:08:30;96547.66;;;1.05;100.00
4598;BME280;62772;48.646;8.906;2022-11-06T03:13:43;96545.94;;;1.33;100.00
4598;BME280;62772;48.646;8.906;2022-11-06T03:18:54;96554.75;;;1.21;100.00
4598;BME280;62772;48.646;8.906;2022-11-06T03:24:00;96538.47;;;1.24;100.00
4598;BME280;62772;48.646;8.906;2022-11-06T03:29:09;96534.16;;;0.40;100.00
4598;BME280;62772;48.646;8.906;2022-11-06T03:34:17;96533.81;;;-0.26;100.00
4598;BME280;62772;48.646;8.906;2022-11-06T03:39:24;96529.16;;;-0.07;100.00
4598;BME280;62772;48.646;8.906;2022-11-06T03:44:31;96521.31;;;0.44;100.00
4598;BME280;62772;48.646;8.906;2022-11-06T03:49:38;96534.16;;;0.40;100.00
4598;BME280;62772;48.646;8.906;2022-11-06T03:54:43;96526.16;;;0.52;100.00
4598;BME280;62772;48.646;8.906;2022-11-06T03:59:53;96514.19;;;-0.07;100.00
4598;BME280;62772;48.646;8.906;2022-11-06T04:04:57;96508.22;;;-0.02;100.00
4598;BME280;62772;48.646;8.906;2022-11-06T04:10:03;96484.59;;;-0.19;100.00
4598;BME280;62772;48.646;8.906;2022-11-06T04:15:26;96491.03;;;-0.10;100.00
4598;BME280;62772;48.646;8.906;2022-11-06T04:20:36;96477.47;;;-0.35;100.00
4598;BME280;62772;48.646;8.906;2022-11-06T04:26:05;96474.41;;;-0.61;100.00
4598;BME280;62772;48.646;8.906;2022-11-06T04:31:35;96468.78;;;-0.53;100.00
4598;BME280;62772;48.646;8.906;2022-11-06T04:36:42;96471.69;;;-0.38;100.00
4598;BME280;62772;48.646;8.906;2022-11-06T04:41:51;96463.00;;;-0.38;100.00
4598;BME280;62772;48.646;8.906;2022-11-06T04:47:04;96458.56;;;-0.38;100.00
4598;BME280;62772;48.646;8.906;2022-11-06T04:52:08;96453.81;;;-0.81;100.00
4598;BME280;62772;48.646;8.906;2022-11-06T04:57:10;96466.13;;;-0.70;100.00
4598;BME280;62772;48.646;8.906;2022-11-06T05:02:13;96478.56;;;-0.77;100.00
4598;BME280;62772;48.646;8.906;2022-11-06T05:07:14;96479.94;;;-0.29;100.00
4598;BME280;62772;48.646;8.906;2022-11-06T05:12:15;96489.84;;;-0.02;100.00
4598;BME280;62772;48.646;8.906;2022-11-06T05:17:18;96480.53;;;-0.10;100.00
4598;BME280;62772;48.646;8.906;2022-11-06T05:22:19;96496.53;;;-0.69;100.00
4598;BME280;62772;48.646;8.906;2022-11-06T05:27:39;96487.22;;;-0.48;100.00
4598;BME280;62772;48.646;8.906;2022-11-06T05:32:42;96479.84;;;0.12;100.00
4598;BME280;62772;48.646;8.906;2022-11-06T05:37:43;96458.94;;;0.00;100.00
4598;BME280;62772;48.646;8.906;2022-11-06T05:42:43;96467.75;;;0.11;100.00
4598;BME280;62772;48.646;8.906;2022-11-06T05:47:47;96470.91;;;0.30;100.00
4598;BME280;62772;48.646;8.906;2022-11-06T05:52:48;96472.69;;;0.07;100.00
4598;BME280;62772;48.646;8.906;2022-11-06T05:57:48;96480.22;;;-0.13;100.00
4598;BME280;62772;48.646;8.906;2022-11-06T06:02:52;96473.09;;;0.16;100.00
4598;BME280;62772;48.646;8.906;2022-11-06T06:07:52;96491.84;;;-0.09;100.00
4598;BME280;62772;48.646;8.906;2022-11-06T06:12:53;96477.47;;;0.27;100.00
4598;BME280;62772;48.646;8.906;2022-11-06T06:17:57;96449.59;;;0.26;100.00
4598;BME280;62772;48.646;8.906;2022-11-06T06:22:58;96454.38;;;0.29;100.00
4598;BME280;62772;48.646;8.906;2022-11-06T06:27:59;96448.81;;;0.26;100.00
4598;BME280;62772;48.646;8.906;2022-11-06T06:33:05;96438.84;;;0.28;100.00
4598;BME280;62772;48.646;8.906;2022-11-06T06:38:06;96444.66;;;0.30;100.00
4598;BME280;62772;48.646;8.906;2022-11-06T06:43:07;96446.50;;;0.12;100.00
4598;BME280;62772;48.646;8.906;2022-11-06T06:48:10;96441.47;;;0.28;100.00
4598;BME280;62772;48.646;8.906;2022-11-06T06:53:11;96438.59;;;0.46;100.00
4598;BME280;62772;48.646;8.906;2022-11-06T06:58:12;96426.94;;;0.59;100.00
4598;BME280;62772;48.646;8.906;2022-11-06T07:03:16;96428.63;;;0.48;100.00
4598;BME280;62772;48.646;8.906;2022-11-06T07:08:17;96420.56;;;0.16;100.00
4598;BME280;62772;48.646;8.906;2022-11-06T07:13:18;96403.81;;;-0.92;100.00
4598;BME280;62772;48.646;8.906;2022-11-06T07:18:21;96386.06;;;-0.73;100.00
4598;BME280;62772;48.646;8.906;2022-11-06T07:23:22;96383.59;;;-0.79;100.00
4598;BME280;62772;48.646;8.906;2022-11-06T07:28:23;96370.84;;;-0.25;100.00
4598;BME280;62772;48.646;8.906;2022-11-06T07:33:26;96359.56;;;-0.25;100.00
4598;BME280;62772;48.646;8.906;2022-11-06T07:38:27;96362.50;;;-0.56;100.00
4598;BME280;62772;48.646;8.906;2022-11-06T07:43:28;96359.56;;;-0.88;100.00
4598;BME280;62772;48.646;8.906;2022-11-06T07:48:31;96351.53;;;-0.81;100.00
4598;BME280;62772;48.646;8.906;2022-11-06T07:53:32;96346.97;;;-0.74;100.00
4598;BME280;62772;48.646;8.906;2022-11-06T07:58:33;96342.28;;;-0.72;100.00
4598;BME280;62772;48.646;8.906;2022-11-06T08:03:37;96325.13;;;-0.63;100.00
4598;BME280;62772;48.646;8.906;2022-11-06T08:08:37;96313.03;;;-0.47;100.00
4598;BME280;62772;48.646;8.906;2022-11-06T08:13:38;96308.72;;;-0.19;100.00
4598;BME280;62772;48.646;8.906;2022-11-06T08:18:42;96330.03;;;-0.66;100.00
4598;BME280;62772;48.646;8.906;2022-11-06T08:23:44;96328.38;;;-0.73;100.00
4598;BME280;62772;48.646;8.906;2022-11-06T08:28:45;96338.06;;;-0.73;100.00
4598;BME280;62772;48.646;8.906;2022-11-06T08:33:48;96341.00;;;-0.69;100.00
4598;BME280;62772;48.646;8.906;2022-11-06T08:38:49;96323.06;;;-0.27;100.00
4598;BME280;62772;48.646;8.906;2022-11-06T08:43:50;96307.63;;;0.16;100.00
4598;BME280;62772;48.646;8.906;2022-11-06T08:48:53;96323.56;;;0.53;100.00
4598;BME280;62772;48.646;8.906;2022-11-06T08:53:54;96321.19;;;0.74;100.00
4598;BME280;62772;48.646;8.906;2022-11-06T08:58:55;96312.84;;;0.82;100.00
4598;BME280;62772;48.646;8.906;2022-11-06T09:03:59;96302.56;;;1.08;100.00
4598;BME280;62772;48.646;8.906;2022-11-06T09:09:00;96313.94;;;1.14;100.00
4598;BME280;62772;48.646;8.906;2022-11-06T09:14:01;96333.44;;;1.45;100.00
4598;BME280;62772;48.646;8.906;2022-11-06T09:19:04;96340.34;;;1.89;100.00
4598;BME280;62772;48.646;8.906;2022-11-06T09:24:05;96337.66;;;2.26;100.00
4598;BME280;62772;48.646;8.906;2022-11-06T09:29:06;96325.59;;;2.35;100.00
4598;BME280;62772;48.646;8.906;2022-11-06T09:34:09;96300.88;;;2.52;100.00
4598;BME280;62772;48.646;8.906;2022-11-06T09:39:10;96289.06;;;2.70;100.00
4598;BME280;62772;48.646;8.906;2022-11-06T09:44:21;96281.72;;;2.82;100.00
4598;BME280;62772;48.646;8.906;2022-11-06T09:49:31;96269.34;;;2.88;100.00
4598;BME280;62772;48.646;8.906;2022-11-06T09:54:38;96252.19;;;2.90;100.00
4598;BME280;62772;48.646;8.906;2022-11-06T09:59:42;96260.66;;;3.13;100.00
4598;BME280;62772;48.646;8.906;2022-11-06T10:04:48;96262.00;;;3.36;100.00
4598;BME280;62772;48.646;8.906;2022-11-06T10:09:51;96274.66;;;3.55;100.00
4598;BME280;62772;48.646;8.906;2022-11-06T10:14:59;96248.25;;;3.55;100.00
4598;BME280;62772;48.646;8.906;2022-11-06T10:20:11;96236.06;;;3.64;100.00
4598;BME280;62772;48.646;8.906;2022-11-06T10:25:18;96227.88;;;3.76;100.00
4598;BME280;62772;48.646;8.906;2022-11-06T10:30:20;96219.16;;;3.75;100.00
4598;BME280;62772;48.646;8.906;2022-11-06T10:35:26;96201.97;;;3.88;100.00
4598;BME280;62772;48.646;8.906;2022-11-06T10:40:31;96185.81;;;3.95;100.00
4598;BME280;62772;48.646;8.906;2022-11-06T10:45:33;96170.59;;;4.31;100.00
4598;BME280;62772;48.646;8.906;2022-11-06T10:50:47;96153.91;;;4.36;100.00
4598;BME280;62772;48.646;8.906;2022-11-06T11:01:25;96128.97;;;4.47;100.00
4598;BME280;62772;48.646;8.906;2022-11-06T11:06:28;96111.06;;;4.73;100.00
4598;BME280;62772;48.646;8.906;2022-11-06T11:11:29;96112.03;;;4.83;100.00
4598;BME280;62772;48.646;8.906;2022-11-06T11:16:33;96096.66;;;4.90;100.00
4598;BME280;62772;48.646;8.906;2022-11-06T11:21:37;96082.91;;;5.17;100.00
4598;BME280;62772;48.646;8.906;2022-11-06T11:26:41;96066.13;;;5.27;100.00
4598;BME280;62772;48.646;8.906;2022-11-06T11:31:45;96049.19;;;5.71;100.00
4598;BME280;62772;48.646;8.906;2022-11-06T11:36:52;96064.84;;;5.68;100.00
4598;BME280;62772;48.646;8.906;2022-11-06T11:42:15;96051.59;;;5.68;100.00
4598;BME280;62772;48.646;8.906;2022-11-06T11:47:20;96049.81;;;5.82;100.00
4598;BME280;62772;48.646;8.906;2022-11-06T11:52:24;96048.31;;;5.95;100.00
4598;BME280;62772;48.646;8.906;2022-11-06T11:57:25;96034.25;;;5.99;100.00
4598;BME280;62772;48.646;8.906;2022-11-06T12:02:29;96031.16;;;5.92;100.00
4598;BME280;62772;48.646;8.906;2022-11-06T12:07:39;96016.75;;;5.79;100.00
4598;BME280;62772;48.646;8.906;2022-11-06T12:12:46;96007.00;;;5.94;100.00
4598;BME280;62772;48.646;8.906;2022-11-06T12:17:52;96016.81;;;5.93;100.00
4598;BME280;62772;48.646;8.906;2022-11-06T12:22:57;96012.09;;;5.90;100.00
4598;BME280;62772;48.646;8.906;2022-11-06T12:28:00;96000.13;;;5.93;100.00
4598;BME280;62772;48.646;8.906;2022-11-06T12:33:08;95987.91;;;5.97;100.00
4598;BME280;62772;48.646;8.906;2022-11-06T12:38:18;95988.03;;;6.06;100.00
4598;BME280;62772;48.646;8.906;2022-11-06T12:43:27;95989.53;;;6.12;100.00
4598;BME280;62772;48.646;8.906;2022-11-06T12:48:40;95982.97;;;6.23;100.00
4598;BME280;62772;48.646;8.906;2022-11-06T12:53:56;95968.13;;;6.41;100.00
4598;BME280;62772;48.646;8.906;2022-11-06T12:59:11;95953.47;;;6.44;100.00
4598;BME280;62772;48.646;8.906;2022-11-06T13:04:28;95939.34;;;6.48;100.00
4598;BME280;62772;48.646;8.906;2022-11-06T13:09:38;95939.56;;;6.66;100.00
4598;BME280;62772;48.646;8.906;2022-11-06T13:14:48;95939.56;;;6.66;100.00
4598;BME280;62772;48.646;8.906;2022-11-06T13:19:56;95923.34;;;6.67;100.00
4598;BME280;62772;48.646;8.906;2022-11-06T13:25:06;95915.50;;;6.76;100.00
4598;BME280;62772;48.646;8.906;2022-11-06T13:30:13;95918.34;;;6.66;100.00
4598;BME280;62772;48.646;8.906;2022-11-06T13:35:17;95919.53;;;6.74;100.00
4598;BME280;62772;48.646;8.906;2022-11-06T13:40:28;95909.09;;;6.77;100.00
4598;BME280;62772;48.646;8.906;2022-11-06T13:45:34;95909.69;;;6.74;100.00
4598;BME280;62772;48.646;8.906;2022-11-06T13:50:47;95919.41;;;6.79;100.00
4598;BME280;62772;48.646;8.906;2022-11-06T13:55:58;95917.94;;;6.72;100.00
4598;BME280;62772;48.646;8.906;2022-11-06T14:01:09;95923.84;;;6.69;100.00
4598;BME280;62772;48.646;8.906;2022-11-06T14:06:15;95926.78;;;6.68;100.00
4598;BME280;62772;48.646;8.906;2022-11-06T14:11:25;95933.47;;;6.65;100.00
4598;BME280;62772;48.646;8.906;2022-11-06T14:16:29;95936.63;;;6.81;100.00
4598;BME280;62772;48.646;8.906;2022-11-06T14:21:47;95944.28;;;6.69;100.00
4598;BME280;62772;48.646;8.906;2022-11-06T14:26:50;95936.22;;;6.74;100.00
4598;BME280;62772;48.646;8.906;2022-11-06T14:31:58;95931.13;;;6.78;100.00
4598;BME280;62772;48.646;8.906;2022-11-06T14:42:43;95890.31;;;6.60;100.00
4598;BME280;62772;48.646;8.906;2022-11-06T14:47:48;95906.25;;;6.74;100.00
4598;BME280;62772;48.646;8.906;2022-11-06T14:52:58;95898.56;;;6.58;100.00
4598;BME280;62772;48.646;8.906;2022-11-06T14:58:13;95892.88;;;6.65;100.00
4598;BME280;62772;48.646;8.906;2022-11-06T15:03:24;95887.69;;;6.74;100.00
4598;BME280;62772;48.646;8.906;2022-11-06T15:08:51;95882.44;;;6.82;100.00
4598;BME280;62772;48.646;8.906;2022-11-06T15:13:55;95888.06;;;6.81;100.00
4598;BME280;62772;48.646;8.906;2022-11-06T15:19:21;95893.09;;;6.68;100.00
4598;BME280;62772;48.646;8.906;2022-11-06T15:24:27;95891.81;;;6.66;100.00
4598;BME280;62772;48.646;8.906;2022-11-06T15:29:31;95892.97;;;6.74;100.00
4598;BME280;62772;48.646;8.906;2022-11-06T15:34:38;95891.88;;;6.47;100.00
4598;BME280;62772;48.646;8.906;2022-11-06T15:39:48;95895.75;;;6.68;100.00
4598;BME280;62772;48.646;8.906;2022-11-06T15:44:50;95899.97;;;6.56;100.00
4598;BME280;62772;48.646;8.906;2022-11-06T15:50:17;95891.69;;;6.71;100.00
4598;BME280;62772;48.646;8.906;2022-11-06T15:55:26;95883.06;;;6.65;100.00
4598;BME280;62772;48.646;8.906;2022-11-06T16:00:27;95881.09;;;6.57;100.00
4598;BME280;62772;48.646;8.906;2022-11-06T16:05:33;95874.00;;;6.66;100.00
4598;BME280;62772;48.646;8.906;2022-11-06T16:10:37;95876.47;;;6.63;100.00
4598;BME280;62772;48.646;8.906;2022-11-06T16:15:46;95870.56;;;6.66;100.00
4598;BME280;62772;48.646;8.906;2022-11-06T16:20:52;95873.81;;;6.77;100.00
4598;BME280;62772;48.646;8.906;2022-11-06T16:26:02;95870.19;;;6.45;100.00
4598;BME280;62772;48.646;8.906;2022-11-06T16:31:07;95864.38;;;6.57;100.00
4598;BME280;62772;48.646;8.906;2022-11-06T16:36:12;95862.81;;;6.42;100.00
4598;BME280;62772;48.646;8.906;2022-11-06T16:41:14;95862.13;;;6.50;100.00
4598;BME280;62772;48.646;8.906;2022-11-06T16:52:22;95862.22;;;6.45;100.00
4598;BME280;62772;48.646;8.906;2022-11-06T16:57:26;95874.31;;;6.51;100.00
4598;BME280;62772;48.646;8.906;2022-11-06T17:02:30;95868.22;;;6.37;100.00
4598;BME280;62772;48.646;8.906;2022-11-06T17:07:34;95880.19;;;6.34;100.00
4598;BME280;62772;48.646;8.906;2022-11-06T17:12:35;95895.41;;;6.42;100.00
4598;BME280;62772;48.646;8.906;2022-11-06T17:17:36;95882.56;;;6.49;100.00
4598;BME280;62772;48.646;8.906;2022-11-06T17:22:41;95887.81;;;6.22;100.00
4598;BME280;62772;48.646;8.906;2022-11-06T17:27:42;95875.47;;;6.45;100.00
4598;BME280;62772;48.646;8.906;2022-11-06T17:32:43;95893.06;;;6.54;100.00
4598;BME280;62772;48.646;8.906;2022-11-06T17:37:46;95894.22;;;6.34;100.00
4598;BME280;62772;48.646;8.906;2022-11-06T17:42:47;95909.16;;;6.30;100.00
4598;BME280;62772;48.646;8.906;2022-11-06T17:47:48;95905.94;;;6.61;100.00
4598;BME280;62772;48.646;8.906;2022-11-06T17:52:51;95912.22;;;6.51;100.00
4598;BME280;62772;48.646;8.906;2022-11-06T17:57:52;95921.56;;;6.63;100.00
4598;BME280;62772;48.646;8.906;2022-11-06T18:02:53;95923.03;;;6.41;100.00
4598;BME280;62772;48.646;8.906;2022-11-06T18:07:56;95946.09;;;6.41;100.00
4598;BME280;62772;48.646;8.906;2022-11-06T18:12:57;95952.41;;;6.45;100.00
4598;BME280;62772;48.646;8.906;2022-11-06T18:17:58;95954.78;;;6.46;100.00
4598;BME280;62772;48.646;8.906;2022-11-06T18:23:01;95941.31;;;6.43;100.00
4598;BME280;62772;48.646;8.906;2022-11-06T18:28:02;95937.28;;;6.45;100.00
4598;BME280;62772;48.646;8.906;2022-11-06T18:33:03;95945.72;;;6.47;100.00
4598;BME280;62772;48.646;8.906;2022-11-06T18:38:06;95926.94;;;6.44;100.00
4598;BME280;62772;48.646;8.906;2022-11-06T18:43:07;95937.00;;;6.61;100.00
4598;BME280;62772;48.646;8.906;2022-11-06T18:48:09;95954.56;;;6.43;100.00
4598;BME280;62772;48.646;8.906;2022-11-06T18:53:12;95945.41;;;6.35;100.00
4598;BME280;62772;48.646;8.906;2022-11-06T18:58:14;95945.72;;;6.47;100.00
4598;BME280;62772;48.646;8.906;2022-11-06T19:03:15;95959.38;;;6.41;100.00
4598;BME280;62772;48.646;8.906;2022-11-06T19:08:18;95953.44;;;6.30;100.00
4598;BME280;62772;48.646;8.906;2022-11-06T19:13:19;95977.84;;;6.46;100.00
4598;BME280;62772;48.646;8.906;2022-11-06T19:18:20;95980.75;;;6.30;100.00
4598;BME280;62772;48.646;8.906;2022-11-06T19:23:24;95962.88;;;6.36;100.00
4598;BME280;62772;48.646;8.906;2022-11-06T19:28:25;95995.44;;;6.42;100.00
4598;BME280;62772;48.646;8.906;2022-11-06T19:33:25;96011.72;;;6.35;100.00
4598;BME280;62772;48.646;8.906;2022-11-06T19:38:29;96006.63;;;6.39;100.00
4598;BME280;62772;48.646;8.906;2022-11-06T19:43:34;96002.63;;;6.41;100.00
4598;BME280;62772;48.646;8.906;2022-11-06T19:48:36;96008.22;;;6.40;100.00
4598;BME280;62772;48.646;8.906;2022-11-06T19:53:40;96009.63;;;6.51;100.00
4598;BME280;62772;48.646;8.906;2022-11-06T19:58:41;96017.78;;;6.54;100.00
4598;BME280;62772;48.646;8.906;2022-11-06T20:03:42;96023.69;;;6.65;100.00
4598;BME280;62772;48.646;8.906;2022-11-06T20:08:48;96018.22;;;6.76;100.00
4598;BME280;62772;48.646;8.906;2022-11-06T20:13:50;96027.84;;;6.85;100.00
4598;BME280;62772;48.646;8.906;2022-11-06T20:18:51;96032.50;;;6.94;100.00
4598;BME280;62772;48.646;8.906;2022-11-06T20:23:55;96031.59;;;6.98;100.00
4598;BME280;62772;48.646;8.906;2022-11-06T20:28:56;96033.03;;;7.10;100.00
4598;BME280;62772;48.646;8.906;2022-11-06T20:33:57;96040.69;;;7.11;100.00
4598;BME280;62772;48.646;8.906;2022-11-06T20:39:01;96039.13;;;7.10;100.00
4598;BME280;62772;48.646;8.906;2022-11-06T20:44:03;96046.69;;;7.31;100.00
4598;BME280;62772;48.646;8.906;2022-11-06T20:49:03;96038.53;;;7.27;100.00
4598;BME280;62772;48.646;8.906;2022-11-06T20:54:07;96049.25;;;7.22;100.00
4598;BME280;62772;48.646;8.906;2022-11-06T20:59:08;96050.44;;;7.30;100.00
4598;BME280;62772;48.646;8.906;2022-11-06T21:04:10;96064.00;;;7.28;100.00
4598;BME280;62772;48.646;8.906;2022-11-06T21:09:14;96075.50;;;7.23;100.00
4598;BME280;62772;48.646;8.906;2022-11-06T21:14:16;96071.59;;;7.35;100.00
4598;BME280;62772;48.646;8.906;2022-11-06T21:19:17;96081.72;;;7.33;100.00
4598;BME280;62772;48.646;8.906;2022-11-06T21:24:20;96081.44;;;7.34;100.00
4598;BME280;62772;48.646;8.906;2022-11-06T21:29:22;96084.47;;;7.28;100.00
4598;BME280;62772;48.646;8.906;2022-11-06T21:34:24;96076.13;;;7.34;100.00
4598;BME280;62772;48.646;8.906;2022-11-06T21:39:27;96076.50;;;7.28;100.00
4598;BME280;62772;48.646;8.906;2022-11-06T21:44:28;96074.16;;;7.26;100.00
4598;BME280;62772;48.646;8.906;2022-11-06T21:49:29;96079.34;;;7.31;100.00
4598;BME280;62772;48.646;8.906;2022-11-06T21:54:32;96079.34;;;7.31;100.00
4598;BME280;62772;48.646;8.906;2022-11-06T21:59:51;96088.22;;;7.40;100.00
4598;BME280;62772;48.646;8.906;2022-11-06T22:04:52;96092.19;;;7.43;100.00
4598;BME280;62772;48.646;8.906;2022-11-06T22:09:55;96109.88;;;7.34;100.00
4598;BME280;62772;48.646;8.906;2022-11-06T22:14:56;96118.13;;;7.32;100.00
4598;BME280;62772;48.646;8.906;2022-11-06T22:19:57;96116.75;;;7.35;100.00
4598;BME280;62772;48.646;8.906;2022-11-06T22:25:01;96118.94;;;7.47;100.00
4598;BME280;62772;48.646;8.906;2022-11-06T22:30:02;96111.75;;;7.47;100.00
4598;BME280;62772;48.646;8.906;2022-11-06T22:35:04;96124.72;;;7.35;100.00
4598;BME280;62772;48.646;8.906;2022-11-06T22:40:09;96134.09;;;7.46;100.00
4598;BME280;62772;48.646;8.906;2022-11-06T22:45:10;96133.69;;;7.39;100.00
4598;BME280;62772;48.646;8.906;2022-11-06T22:50:10;96149.63;;;7.39;100.00
4598;BME280;62772;48.646;8.906;2022-11-06T22:55:14;96145.81;;;7.45;100.00
4598;BME280;62772;48.646;8.906;2022-11-06T23:00:15;96144.50;;;7.42;100.00
4598;BME280;62772;48.646;8.906;2022-11-06T23:05:17;96146.41;;;7.70;100.00
4598;BME280;62772;48.646;8.906;2022-11-06T23:10:20;96146.69;;;7.82;100.00
4598;BME280;62772;48.646;8.906;2022-11-06T23:15:28;96154.78;;;7.91;100.00
4598;BME280;62772;48.646;8.906;2022-11-06T23:20:38;96162.47;;;7.92;100.00
4598;BME280;62772;48.646;8.906;2022-11-06T23:25:41;96167.00;;;8.06;100.00
4598;BME280;62772;48.646;8.906;2022-11-06T23:30:42;96159.13;;;8.01;100.00
4598;BME280;62772;48.646;8.906;2022-11-06T23:35:43;96166.59;;;7.98;100.00
4598;BME280;62772;48.646;8.906;2022-11-06T23:40:46;96157.81;;;7.98;100.00
4598;BME280;62772;48.646;8.906;2022-11-06T23:45:47;96156.94;;;8.03;100.00
4598;BME280;62772;48.646;8.906;2022-11-06T23:50:48;96168.47;;;7.98;100.00
4598;BME280;62772;48.646;8.906;2022-11-06T23:55:51;96174.56;;;7.98;100.00
